sensor_id;sensor_type;location;lat;lon;timestamp;pressure;altitude;pressure_sealevel;temperature;humidity
57574;BME280;68988;49.000;21.242;2023-05-08T00:01:13;99293.63;;;22.00;40.04
57574;BME280;68988;49.000;21.242;2023-05-08T00:03:39;99300.56;;;22.01;40.13
57574;BME280;68988;49.000;21.242;2023-05-08T00:06:05;99303.47;;;21.99;39.88
57574;BME280;68988;49.000;21.242;2023-05-08T00:08:30;99300.56;;;22.01;40.02
57574;BME280;68988;49.000;21.242;2023-05-08T00:10:56;99299.28;;;22.04;39.93
57574;BME280;68988;49.000;21.242;2023-05-08T00:13:21;99293.63;;;22.00;40.01
57574;BME280;68988;49.000;21.242;2023-05-08T00:15:47;99292.78;;;21.99;40.13
57574;BME280;68988;49.000;21.242;2023-05-08T00:18:12;99291.97;;;21.99;40.17
57574;BME280;68988;49.000;21.242;2023-05-08T00:20:37;99302.66;;;21.99;40.09
57574;BME280;68988;49.000;21.242;2023-05-08T00:23:03;99294.09;;;21.97;40.12
57574;BME280;68988;49.000;21.242;2023-05-08T00:25:28;99305.34;;;21.99;40.03
57574;BME280;68988;49.000;21.242;2023-05-08T00:27:55;99298.38;;;21.98;40.20
57574;BME280;68988;49.000;21.242;2023-05-08T00:30:21;99305.56;;;21.97;40.08
57574;BME280;68988;49.000;21.242;2023-05-08T00:32:47;99299.19;;;21.98;40.04
57574;BME280;68988;49.000;21.242;2023-05-08T00:35:12;99297.56;;;21.97;40.01
57574;BME280;68988;49.000;21.242;2023-05-08T00:37:37;99300.22;;;21.97;39.96
57574;BME280;68988;49.000;21.242;2023-05-08T00:40:06;99305.56;;;21.97;40.21
57574;BME280;68988;49.000;21.242;2023-05-08T00:42:32;99306.59;;;21.96;39.98
57574;BME280;68988;49.000;21.242;2023-05-08T00:44:57;99313.00;;;21.95;40.13
57574;BME280;68988;49.000;21.242;2023-05-08T00:47:23;99313.81;;;21.96;40.08
57574;BME280;68988;49.000;21.242;2023-05-08T00:49:48;99313.25;;;21.94;40.11
57574;BME280;68988;49.000;21.242;2023-05-08T00:52:14;99310.09;;;21.97;39.92
57574;BME280;68988;49.000;21.242;2023-05-08T00:54:40;99318.34;;;21.95;40.03
57574;BME280;68988;49.000;21.242;2023-05-08T00:57:06;99314.06;;;21.94;40.32
57574;BME280;68988;49.000;21.242;2023-05-08T00:59:32;99324.75;;;21.94;40.05
57574;BME280;68988;49.000;21.242;2023-05-08T01:01:59;99316.72;;;21.94;40.21
57574;BME280;68988;49.000;21.242;2023-05-08T01:04:25;99325.53;;;21.95;40.18
57574;BME280;68988;49.000;21.242;2023-05-08T01:06:50;99315.09;;;21.93;40.23
57574;BME280;68988;49.000;21.242;2023-05-08T01:09:16;99315.94;;;21.94;40.14
57574;BME280;68988;49.000;21.242;2023-05-08T01:22:59;99316.00;;;21.99;40.06
57574;BME280;68988;49.000;21.242;2023-05-08T01:25:47;99314.38;;;21.98;39.96
57574;BME280;68988;49.000;21.242;2023-05-08T01:33:52;99325.31;;;21.96;39.95
57574;BME280;68988;49.000;21.242;2023-05-08T01:36:39;99321.03;;;21.95;39.95
57574;BME280;68988;49.000;21.242;2023-05-08T01:42:15;99325.31;;;21.96;40.04
57574;BME280;68988;49.000;21.242;2023-05-08T01:44:48;99334.03;;;21.92;39.92
57574;BME280;68988;49.000;21.242;2023-05-08T01:47:15;99330.53;;;22.03;39.92
57574;BME280;68988;49.000;21.242;2023-05-08T01:49:48;99339.84;;;21.89;40.13
57574;BME280;68988;49.000;21.242;2023-05-08T01:52:19;99336.59;;;21.87;40.13
57574;BME280;68988;49.000;21.242;2023-05-08T01:55:08;99322.31;;;21.93;39.84
57574;BME280;68988;49.000;21.242;2023-05-08T01:57:36;99331.50;;;21.85;40.09
57574;BME280;68988;49.000;21.242;2023-05-08T02:00:04;99318.16;;;21.85;40.34
57574;BME280;68988;49.000;21.242;2023-05-08T02:02:31;99325.13;;;21.86;40.07
57574;BME280;68988;49.000;21.242;2023-05-08T02:05:01;99323.50;;;21.85;40.02
57574;BME280;68988;49.000;21.242;2023-05-08T02:07:28;99331.25;;;21.87;40.28
57574;BME280;68988;49.000;21.242;2023-05-08T02:09:55;99325.13;;;21.86;39.90
57574;BME280;68988;49.000;21.242;2023-05-08T02:12:23;99334.72;;;21.87;40.03
57574;BME280;68988;49.000;21.242;2023-05-08T02:14:52;99325.91;;;21.87;39.94
57574;BME280;68988;49.000;21.242;2023-05-08T02:17:18;99330.47;;;21.86;39.87
57574;BME280;68988;49.000;21.242;2023-05-08T02:19:45;99350.75;;;21.87;40.03
57574;BME280;68988;49.000;21.242;2023-05-08T02:22:12;99331.50;;;21.85;40.18
57574;BME280;68988;49.000;21.242;2023-05-08T02:24:41;99333.13;;;21.86;39.95
57574;BME280;68988;49.000;21.242;2023-05-08T02:27:08;99330.47;;;21.86;40.02
57574;BME280;68988;49.000;21.242;2023-05-08T02:29:35;99333.13;;;21.86;39.97
57574;BME280;68988;49.000;21.242;2023-05-08T02:32:02;99333.38;;;21.85;40.02
57574;BME280;68988;49.000;21.242;2023-05-08T02:34:29;99341.13;;;21.86;40.00
57574;BME280;68988;49.000;21.242;2023-05-08T02:36:56;99336.84;;;21.85;40.02
57574;BME280;68988;49.000;21.242;2023-05-08T02:39:29;99339.03;;;21.88;39.99
57574;BME280;68988;49.000;21.242;2023-05-08T02:41:56;99343.22;;;21.84;39.97
57574;BME280;68988;49.000;21.242;2023-05-08T02:44:22;99347.50;;;21.85;39.95
57574;BME280;68988;49.000;21.242;2023-05-08T02:47:02;99344.38;;;21.88;40.16
57574;BME280;68988;49.000;21.242;2023-05-08T02:49:47;99351.34;;;21.89;39.81
57574;BME280;68988;49.000;21.242;2023-05-08T02:52:33;99351.34;;;21.89;39.82
57574;BME280;68988;49.000;21.242;2023-05-08T02:58:07;99351.00;;;21.86;40.04
57574;BME280;68988;49.000;21.242;2023-05-08T03:00:41;99349.38;;;21.85;40.05
57574;BME280;68988;49.000;21.242;2023-05-08T03:03:14;99357.63;;;21.83;40.21
57574;BME280;68988;49.000;21.242;2023-05-08T03:05:43;99357.59;;;21.95;39.75
57574;BME280;68988;49.000;21.242;2023-05-08T03:08:22;99362.97;;;21.83;40.13
57574;BME280;68988;49.000;21.242;2023-05-08T03:10:51;99359.94;;;21.79;40.03
57574;BME280;68988;49.000;21.242;2023-05-08T03:13:19;99356.47;;;21.79;39.95
57574;BME280;68988;49.000;21.242;2023-05-08T03:18:14;99365.03;;;21.81;39.78
57574;BME280;68988;49.000;21.242;2023-05-08T03:20:43;99351.69;;;21.81;40.06
57574;BME280;68988;49.000;21.242;2023-05-08T03:23:11;99358.09;;;21.80;39.94
57574;BME280;68988;49.000;21.242;2023-05-08T03:25:40;99358.09;;;21.80;39.97
57574;BME280;68988;49.000;21.242;2023-05-08T03:28:06;99353.78;;;21.79;39.98
57574;BME280;68988;49.000;21.242;2023-05-08T03:30:36;99358.66;;;21.82;39.87
57574;BME280;68988;49.000;21.242;2023-05-08T03:33:06;99357.03;;;21.81;40.03
57574;BME280;68988;49.000;21.242;2023-05-08T03:35:34;99366.66;;;21.82;39.83
57574;BME280;68988;49.000;21.242;2023-05-08T03:38:00;99366.34;;;21.78;40.08
57574;BME280;68988;49.000;21.242;2023-05-08T03:40:26;99372.25;;;21.80;39.96
57574;BME280;68988;49.000;21.242;2023-05-08T03:42:52;99358.09;;;21.80;40.26
57574;BME280;68988;49.000;21.242;2023-05-08T03:45:18;99363.44;;;21.80;39.94
57574;BME280;68988;49.000;21.242;2023-05-08T03:47:45;99364.00;;;21.82;39.86
57574;BME280;68988;49.000;21.242;2023-05-08T03:50:10;99362.84;;;21.78;40.05
57574;BME280;68988;49.000;21.242;2023-05-08T03:52:37;99366.34;;;21.78;40.03
57574;BME280;68988;49.000;21.242;2023-05-08T03:55:02;99365.50;;;21.78;40.06
57574;BME280;68988;49.000;21.242;2023-05-08T03:57:34;99373.66;;;21.83;39.93
57574;BME280;68988;49.000;21.242;2023-05-08T04:00:13;99367.72;;;21.81;39.95
57574;BME280;68988;49.000;21.242;2023-05-08T04:03:12;99367.72;;;21.81;40.03
57574;BME280;68988;49.000;21.242;2023-05-08T04:06:15;99369.09;;;21.84;39.77
57574;BME280;68988;49.000;21.242;2023-05-08T04:08:48;99379.47;;;21.80;39.98
57574;BME280;68988;49.000;21.242;2023-05-08T04:11:25;99371.69;;;21.78;39.93
57574;BME280;68988;49.000;21.242;2023-05-08T04:13:59;99376.19;;;21.78;39.82
57574;BME280;68988;49.000;21.242;2023-05-08T04:16:26;99374.81;;;21.75;39.93
57574;BME280;68988;49.000;21.242;2023-05-08T04:19:00;99379.94;;;21.77;40.11
57574;BME280;68988;49.000;21.242;2023-05-08T04:21:28;99384.19;;;21.78;40.02
57574;BME280;68988;49.000;21.242;2023-05-08T04:23:56;99384.44;;;21.76;39.86
57574;BME280;68988;49.000;21.242;2023-05-08T04:26:22;99384.19;;;21.78;39.95
57574;BME280;68988;49.000;21.242;2023-05-08T04:28:48;99389.53;;;21.78;39.69
57574;BME280;68988;49.000;21.242;2023-05-08T04:31:15;99395.94;;;21.77;39.93
57574;BME280;68988;49.000;21.242;2023-05-08T04:33:42;99394.31;;;21.76;39.76
57574;BME280;68988;49.000;21.242;2023-05-08T04:36:12;99399.41;;;21.77;39.78
57574;BME280;68988;49.000;21.242;2023-05-08T04:38:41;99400.69;;;21.75;39.93
57574;BME280;68988;49.000;21.242;2023-05-08T04:41:06;99400.69;;;21.75;40.10
57574;BME280;68988;49.000;21.242;2023-05-08T04:43:33;99400.69;;;21.75;40.06
57574;BME280;68988;49.000;21.242;2023-05-08T04:45:58;99403.34;;;21.75;39.94
57574;BME280;68988;49.000;21.242;2023-05-08T04:48:24;99404.53;;;21.79;39.87
57574;BME280;68988;49.000;21.242;2023-05-08T04:50:50;99401.28;;;21.77;40.05
57574;BME280;68988;49.000;21.242;2023-05-08T04:53:15;99417.31;;;21.77;39.81
57574;BME280;68988;49.000;21.242;2023-05-08T04:55:41;99407.66;;;21.76;39.86
57574;BME280;68988;49.000;21.242;2023-05-08T04:58:06;99426.34;;;21.76;39.70
57574;BME280;68988;49.000;21.242;2023-05-08T05:00:33;99421.00;;;21.76;39.87
57574;BME280;68988;49.000;21.242;2023-05-08T05:02:58;99422.88;;;21.75;39.89
57574;BME280;68988;49.000;21.242;2023-05-08T05:05:24;99409.53;;;21.75;39.93
57574;BME280;68988;49.000;21.242;2023-05-08T05:07:49;99413.22;;;21.74;39.86
57574;BME280;68988;49.000;21.242;2023-05-08T05:10:14;99416.69;;;21.75;39.80
57574;BME280;68988;49.000;21.242;2023-05-08T05:12:40;99425.53;;;21.75;39.96
57574;BME280;68988;49.000;21.242;2023-05-08T05:15:06;99420.19;;;21.75;39.70
57574;BME280;68988;49.000;21.242;2023-05-08T05:17:31;99419.59;;;21.73;39.90
57574;BME280;68988;49.000;21.242;2023-05-08T05:19:57;99422.88;;;21.75;39.95
57574;BME280;68988;49.000;21.242;2023-05-08T05:22:23;99432.72;;;21.75;39.88
57574;BME280;68988;49.000;21.242;2023-05-08T05:24:48;99428.44;;;21.74;39.99
57574;BME280;68988;49.000;21.242;2023-05-08T05:27:14;99426.81;;;21.73;40.11
57574;BME280;68988;49.000;21.242;2023-05-08T05:29:39;99433.78;;;21.74;39.99
57574;BME280;68988;49.000;21.242;2023-05-08T05:32:05;99433.56;;;21.75;39.76
57574;BME280;68988;49.000;21.242;2023-05-08T05:34:33;99432.94;;;21.73;39.84
57574;BME280;68988;49.000;21.242;2023-05-08T05:36:58;99432.72;;;21.75;39.73
57574;BME280;68988;49.000;21.242;2023-05-08T05:39:23;99447.94;;;21.74;39.69
57574;BME280;68988;49.000;21.242;2023-05-08T05:41:49;99443.41;;;21.75;39.83
57574;BME280;68988;49.000;21.242;2023-05-08T05:44:14;99444.22;;;21.75;39.67
57574;BME280;68988;49.000;21.242;2023-05-08T05:46:40;99446.06;;;21.75;39.82
57574;BME280;68988;49.000;21.242;2023-05-08T05:49:05;99440.25;;;21.78;39.80
57574;BME280;68988;49.000;21.242;2023-05-08T05:51:31;99442.38;;;21.76;39.78
57574;BME280;68988;49.000;21.242;2023-05-08T05:53:56;99435.63;;;21.73;39.76
57574;BME280;68988;49.000;21.242;2023-05-08T05:56:22;99440.72;;;21.75;39.92
57574;BME280;68988;49.000;21.242;2023-05-08T05:58:47;99448.72;;;21.75;39.75
57574;BME280;68988;49.000;21.242;2023-05-08T06:01:13;99456.97;;;21.73;39.80
57574;BME280;68988;49.000;21.242;2023-05-08T06:03:38;99455.72;;;21.76;39.73
57574;BME280;68988;49.000;21.242;2023-05-08T06:06:04;99452.25;;;21.75;39.72
57574;BME280;68988;49.000;21.242;2023-05-08T06:08:29;99457.81;;;21.74;39.80
57574;BME280;68988;49.000;21.242;2023-05-08T06:10:55;99451.41;;;21.75;39.86
57574;BME280;68988;49.000;21.242;2023-05-08T06:13:20;99450.59;;;21.74;39.63
57574;BME280;68988;49.000;21.242;2023-05-08T06:15:46;99451.41;;;21.75;39.67
57574;BME280;68988;49.000;21.242;2023-05-08T06:18:11;99453.03;;;21.76;39.80
57574;BME280;68988;49.000;21.242;2023-05-08T06:20:37;99456.75;;;21.75;39.72
57574;BME280;68988;49.000;21.242;2023-05-08T06:23:03;99457.22;;;21.72;39.65
57574;BME280;68988;49.000;21.242;2023-05-08T06:25:28;99458.59;;;21.74;40.21
57574;BME280;68988;49.000;21.242;2023-05-08T06:27:55;99458.59;;;21.74;39.64
57574;BME280;68988;49.000;21.242;2023-05-08T06:30:20;99468.50;;;21.74;39.77
57574;BME280;68988;49.000;21.242;2023-05-08T06:32:46;99461.50;;;21.73;39.74
57574;BME280;68988;49.000;21.242;2023-05-08T06:35:11;99466.84;;;21.73;39.81
57574;BME280;68988;49.000;21.242;2023-05-08T06:37:37;99472.75;;;21.75;39.76
57574;BME280;68988;49.000;21.242;2023-05-08T06:40:02;99471.97;;;21.74;39.64
57574;BME280;68988;49.000;21.242;2023-05-08T06:42:28;99473.59;;;21.75;39.66
57574;BME280;68988;49.000;21.242;2023-05-08T06:44:53;99474.84;;;21.73;39.69
57574;BME280;68988;49.000;21.242;2023-05-08T06:47:19;99479.63;;;21.71;39.40
57574;BME280;68988;49.000;21.242;2023-05-08T06:49:44;99483.09;;;21.71;39.74
57574;BME280;68988;49.000;21.242;2023-05-08T06:52:10;99487.97;;;21.74;39.50
57574;BME280;68988;49.000;21.242;2023-05-08T06:54:35;99489.25;;;21.72;39.68
57574;BME280;68988;49.000;21.242;2023-05-08T06:57:00;99497.84;;;21.74;39.89
57574;BME280;68988;49.000;21.242;2023-05-08T06:59:26;99505.03;;;21.73;39.66
57574;BME280;68988;49.000;21.242;2023-05-08T07:01:51;99510.13;;;21.75;39.87
57574;BME280;68988;49.000;21.242;2023-05-08T07:04:16;99499.91;;;21.72;39.65
57574;BME280;68988;49.000;21.242;2023-05-08T07:06:42;99505.03;;;21.73;39.76
57574;BME280;68988;49.000;21.242;2023-05-08T07:09:07;99504.78;;;21.75;39.62
57574;BME280;68988;49.000;21.242;2023-05-08T07:11:33;99505.03;;;21.73;39.66
57574;BME280;68988;49.000;21.242;2023-05-08T07:13:59;99502.34;;;21.73;39.55
57574;BME280;68988;49.000;21.242;2023-05-08T07:16:24;99518.38;;;21.73;39.84
57574;BME280;68988;49.000;21.242;2023-05-08T07:18:49;99506.09;;;21.72;39.78
57574;BME280;68988;49.000;21.242;2023-05-08T07:21:15;99524.78;;;21.72;39.48
57574;BME280;68988;49.000;21.242;2023-05-08T07:23:42;99525.00;;;21.71;39.72
57574;BME280;68988;49.000;21.242;2023-05-08T07:26:07;99526.63;;;21.72;39.51
57574;BME280;68988;49.000;21.242;2023-05-08T07:28:33;99530.91;;;21.73;39.69
57574;BME280;68988;49.000;21.242;2023-05-08T07:30:58;99533.59;;;21.73;39.73
57574;BME280;68988;49.000;21.242;2023-05-08T07:33:23;99526.63;;;21.72;39.69
57574;BME280;68988;49.000;21.242;2023-05-08T07:35:49;99533.81;;;21.71;39.75
57574;BME280;68988;49.000;21.242;2023-05-08T07:38:14;99535.22;;;21.74;39.74
57574;BME280;68988;49.000;21.242;2023-05-08T07:40:39;99539.97;;;21.72;39.59
57574;BME280;68988;49.000;21.242;2023-05-08T07:43:05;99531.50;;;21.75;39.61
57574;BME280;68988;49.000;21.242;2023-05-08T07:45:30;99533.59;;;21.73;39.66
57574;BME280;68988;49.000;21.242;2023-05-08T07:47:57;99538.94;;;21.73;39.55
57574;BME280;68988;49.000;21.242;2023-05-08T07:50:24;99537.28;;;21.72;39.64
57574;BME280;68988;49.000;21.242;2023-05-08T07:52:50;99533.00;;;21.71;39.82
57574;BME280;68988;49.000;21.242;2023-05-08T07:55:16;99538.94;;;21.73;39.78
57574;BME280;68988;49.000;21.242;2023-05-08T07:57:42;99542.63;;;21.72;39.61
57574;BME280;68988;49.000;21.242;2023-05-08T08:00:10;99532.78;;;21.72;39.64
57574;BME280;68988;49.000;21.242;2023-05-08T08:02:37;99533.59;;;21.73;40.02
57574;BME280;68988;49.000;21.242;2023-05-08T08:05:03;99541.59;;;21.73;39.60
57574;BME280;68988;49.000;21.242;2023-05-08T08:07:29;99544.25;;;21.73;39.57
57574;BME280;68988;49.000;21.242;2023-05-08T08:09:57;99538.94;;;21.73;39.82
57574;BME280;68988;49.000;21.242;2023-05-08T08:12:22;99543.22;;;21.74;39.38
57574;BME280;68988;49.000;21.242;2023-05-08T08:14:47;99539.28;;;21.76;39.73
57574;BME280;68988;49.000;21.242;2023-05-08T08:17:13;99541.38;;;21.74;39.60
57574;BME280;68988;49.000;21.242;2023-05-08T08:19:38;99537.66;;;21.75;39.37
57574;BME280;68988;49.000;21.242;2023-05-08T08:22:04;99534.75;;;21.77;39.48
57574;BME280;68988;49.000;21.242;2023-05-08T08:24:30;99533.13;;;21.76;39.67
57574;BME280;68988;49.000;21.242;2023-05-08T08:26:56;99539.03;;;21.78;39.41
57574;BME280;68988;49.000;21.242;2023-05-08T08:29:21;99548.13;;;21.77;39.50
57574;BME280;68988;49.000;21.242;2023-05-08T08:31:47;99538.47;;;21.76;39.59
57574;BME280;68988;49.000;21.242;2023-05-08T08:34:12;99542.53;;;21.78;39.28
57574;BME280;68988;49.000;21.242;2023-05-08T08:36:38;99545.78;;;21.80;39.41
57574;BME280;68988;49.000;21.242;2023-05-08T08:39:04;99544.97;;;21.80;39.26
57574;BME280;68988;49.000;21.242;2023-05-08T08:41:29;99534.75;;;21.77;39.36
57574;BME280;68988;49.000;21.242;2023-05-08T08:43:54;99542.31;;;21.80;39.41
57574;BME280;68988;49.000;21.242;2023-05-08T08:46:23;99530.78;;;21.79;39.52
57574;BME280;68988;49.000;21.242;2023-05-08T08:48:50;99537.78;;;21.80;39.38
57574;BME280;68988;49.000;21.242;2023-05-08T08:51:45;99541.97;;;21.88;39.40
57574;BME280;68988;49.000;21.242;2023-05-08T08:54:20;99540.22;;;21.82;39.24
57574;BME280;68988;49.000;21.242;2023-05-08T08:56:48;99544.16;;;21.79;39.34
57574;BME280;68988;49.000;21.242;2023-05-08T08:59:15;99545.78;;;21.80;39.29
57574;BME280;68988;49.000;21.242;2023-05-08T09:01:43;99555.66;;;21.80;39.32
57574;BME280;68988;49.000;21.242;2023-05-08T09:04:10;99557.88;;;21.83;39.26
57574;BME280;68988;49.000;21.242;2023-05-08T09:06:36;99546.97;;;21.85;39.41
57574;BME280;68988;49.000;21.242;2023-05-08T09:09:02;99552.06;;;21.86;39.55
57574;BME280;68988;49.000;21.242;2023-05-08T09:11:28;99549.41;;;21.86;39.37
57574;BME280;68988;49.000;21.242;2023-05-08T09:13:54;99552.88;;;21.87;39.44
57574;BME280;68988;49.000;21.242;2023-05-08T09:16:19;99546.72;;;21.86;39.35
57574;BME280;68988;49.000;21.242;2023-05-08T09:18:45;99556.34;;;21.87;39.20
57574;BME280;68988;49.000;21.242;2023-05-08T09:21:11;99555.53;;;21.87;39.19
57574;BME280;68988;49.000;21.242;2023-05-08T09:26:40;99561.22;;;21.90;39.33
57574;BME280;68988;49.000;21.242;2023-05-08T09:29:09;99560.66;;;21.88;39.20
57574;BME280;68988;49.000;21.242;2023-05-08T09:31:45;99569.84;;;21.92;38.99
57574;BME280;68988;49.000;21.242;2023-05-08T09:34:22;99563.91;;;21.90;39.22
57574;BME280;68988;49.000;21.242;2023-05-08T09:36:49;99568.66;;;21.88;39.47
57574;BME280;68988;49.000;21.242;2023-05-08T09:39:23;99564.97;;;21.89;39.28
57574;BME280;68988;49.000;21.242;2023-05-08T09:41:59;99573.53;;;21.91;39.20
57574;BME280;68988;49.000;21.242;2023-05-08T09:44:25;99570.75;;;21.86;39.29
57574;BME280;68988;49.000;21.242;2023-05-08T09:46:50;99556.81;;;21.84;39.18
57574;BME280;68988;49.000;21.242;2023-05-08T09:49:17;99578.31;;;21.89;39.33
57574;BME280;68988;49.000;21.242;2023-05-08T09:51:51;99580.28;;;21.94;39.14
57574;BME280;68988;49.000;21.242;2023-05-08T09:54:20;99572.13;;;21.89;39.29
57574;BME280;68988;49.000;21.242;2023-05-08T09:56:45;99564.59;;;21.86;39.15
57574;BME280;68988;49.000;21.242;2023-05-08T09:59:25;99580.28;;;21.94;39.12
57574;BME280;68988;49.000;21.242;2023-05-08T10:01:51;99575.63;;;21.89;39.15
57574;BME280;68988;49.000;21.242;2023-05-08T10:04:16;99573.78;;;21.90;39.10
57574;BME280;68988;49.000;21.242;2023-05-08T10:06:42;99574.00;;;21.88;39.11
57574;BME280;68988;49.000;21.242;2023-05-08T10:09:17;99576.66;;;21.88;39.09
57574;BME280;68988;49.000;21.242;2023-05-08T10:11:52;99582.59;;;21.90;39.21
57574;BME280;68988;49.000;21.242;2023-05-08T10:14:18;99586.78;;;21.86;39.16
57574;BME280;68988;49.000;21.242;2023-05-08T10:16:45;99583.88;;;21.88;39.21
57574;BME280;68988;49.000;21.242;2023-05-08T10:19:13;99584.69;;;21.88;39.14
57574;BME280;68988;49.000;21.242;2023-05-08T10:21:40;99579.34;;;21.88;39.08
57574;BME280;68988;49.000;21.242;2023-05-08T10:24:12;99584.22;;;21.91;39.17
57574;BME280;68988;49.000;21.242;2023-05-08T10:26:42;99583.66;;;21.89;39.24
57574;BME280;68988;49.000;21.242;2023-05-08T10:29:16;99578.53;;;21.88;39.24
57574;BME280;68988;49.000;21.242;2023-05-08T10:31:43;99576.66;;;21.88;39.11
57574;BME280;68988;49.000;21.242;2023-05-08T10:34:13;99571.09;;;21.90;39.21
57574;BME280;68988;49.000;21.242;2023-05-08T10:36:42;99575.88;;;21.88;38.89
57574;BME280;68988;49.000;21.242;2023-05-08T10:39:09;99564.13;;;21.89;39.03
57574;BME280;68988;49.000;21.242;2023-05-08T10:41:36;99573.78;;;21.90;39.10
57574;BME280;68988;49.000;21.242;2023-05-08T10:44:02;99561.22;;;21.90;38.97
57574;BME280;68988;49.000;21.242;2023-05-08T10:54:33;99564.03;;;21.95;38.93
57574;BME280;68988;49.000;21.242;2023-05-08T10:57:08;99561.81;;;21.92;39.12
57574;BME280;68988;49.000;21.242;2023-05-08T10:59:34;99562.53;;;21.88;39.16
57574;BME280;68988;49.000;21.242;2023-05-08T11:02:05;99558.78;;;21.89;38.96
57574;BME280;68988;49.000;21.242;2023-05-08T11:04:33;99570.88;;;22.03;38.95
57574;BME280;68988;49.000;21.242;2023-05-08T11:06:59;99568.66;;;21.88;39.48
57574;BME280;68988;49.000;21.242;2023-05-08T11:12:26;99564.25;;;21.94;39.04
57574;BME280;68988;49.000;21.242;2023-05-08T11:15:05;99565.53;;;21.91;39.15
57574;BME280;68988;49.000;21.242;2023-05-08T11:17:31;99553.44;;;21.89;38.95
57574;BME280;68988;49.000;21.242;2023-05-08T11:20:03;99557.19;;;21.88;39.17
57574;BME280;68988;49.000;21.242;2023-05-08T11:22:33;99567.41;;;21.91;39.29
57574;BME280;68988;49.000;21.242;2023-05-08T11:35:52;99568.78;;;21.93;38.88
57574;BME280;68988;49.000;21.242;2023-05-08T11:46:06;99552.63;;;21.88;39.08
57574;BME280;68988;49.000;21.242;2023-05-08T11:48:33;99553.91;;;21.86;39.02
57574;BME280;68988;49.000;21.242;2023-05-08T11:51:00;99558.44;;;21.85;39.26
57574;BME280;68988;49.000;21.242;2023-05-08T11:53:25;99550.44;;;21.85;38.97
57574;BME280;68988;49.000;21.242;2023-05-08T11:55:52;99556.81;;;21.84;39.28
57574;BME280;68988;49.000;21.242;2023-05-08T11:58:17;99557.19;;;21.88;39.07
57574;BME280;68988;49.000;21.242;2023-05-08T12:00:44;99554.75;;;21.86;39.10
57574;BME280;68988;49.000;21.242;2023-05-08T12:03:18;99565.31;;;21.93;39.19
57574;BME280;68988;49.000;21.242;2023-05-08T12:05:44;99561.44;;;21.89;39.05
57574;BME280;68988;49.000;21.242;2023-05-08T12:08:10;99556.34;;;21.87;39.17
57574;BME280;68988;49.000;21.242;2023-05-08T12:10:47;99556.34;;;21.87;39.02
57574;BME280;68988;49.000;21.242;2023-05-08T12:15:49;99556.34;;;21.87;39.08
57574;BME280;68988;49.000;21.242;2023-05-08T12:18:15;99554.75;;;21.86;38.92
57574;BME280;68988;49.000;21.242;2023-05-08T12:20:42;99552.28;;;21.85;39.23
57574;BME280;68988;49.000;21.242;2023-05-08T12:23:07;99550.66;;;21.84;39.13
57574;BME280;68988;49.000;21.242;2023-05-08T12:25:36;99551.47;;;21.84;38.91
57574;BME280;68988;49.000;21.242;2023-05-08T12:28:01;99563.78;;;21.85;39.06
57574;BME280;68988;49.000;21.242;2023-05-08T12:30:27;99558.91;;;21.82;39.12
57574;BME280;68988;49.000;21.242;2023-05-08T12:32:52;99561.56;;;21.82;39.33
57574;BME280;68988;49.000;21.242;2023-05-08T12:35:18;99558.91;;;21.82;39.11
57574;BME280;68988;49.000;21.242;2023-05-08T12:37:44;99567.47;;;21.84;39.08
57574;BME280;68988;49.000;21.242;2023-05-08T12:40:25;99569.94;;;21.86;39.17
57574;BME280;68988;49.000;21.242;2023-05-08T12:42:51;99570.38;;;21.82;38.96
57574;BME280;68988;49.000;21.242;2023-05-08T12:45:24;99571.22;;;21.83;39.12
57574;BME280;68988;49.000;21.242;2023-05-08T12:47:50;99567.75;;;21.94;39.05
57574;BME280;68988;49.000;21.242;2023-05-08T12:50:17;99567.59;;;21.77;39.06
57574;BME280;68988;49.000;21.242;2023-05-08T12:52:43;99562.25;;;21.77;39.16
57574;BME280;68988;49.000;21.242;2023-05-08T12:57:47;99563.06;;;21.78;39.27
57574;BME280;68988;49.000;21.242;2023-05-08T13:00:14;99562.03;;;21.79;39.05
57574;BME280;68988;49.000;21.242;2023-05-08T13:02:50;99558.44;;;21.85;39.00
57574;BME280;68988;49.000;21.242;2023-05-08T13:05:18;99558.91;;;21.82;39.21
57574;BME280;68988;49.000;21.242;2023-05-08T13:07:44;99560.53;;;21.83;39.20
57574;BME280;68988;49.000;21.242;2023-05-08T13:10:09;99568.78;;;21.81;39.01
57574;BME280;68988;49.000;21.242;2023-05-08T13:12:35;99562.59;;;21.81;39.25
57574;BME280;68988;49.000;21.242;2023-05-08T13:15:00;99563.44;;;21.81;39.06
57574;BME280;68988;49.000;21.242;2023-05-08T13:17:28;99550.56;;;21.78;39.06
57574;BME280;68988;49.000;21.242;2023-05-08T13:19:54;99564.25;;;21.82;39.11
57574;BME280;68988;49.000;21.242;2023-05-08T13:22:19;99564.25;;;21.82;39.10
57574;BME280;68988;49.000;21.242;2023-05-08T13:24:47;99552.75;;;21.81;39.14
57574;BME280;68988;49.000;21.242;2023-05-08T13:27:12;99555.44;;;21.81;39.06
57574;BME280;68988;49.000;21.242;2023-05-08T13:29:38;99546.59;;;21.81;39.15
57574;BME280;68988;49.000;21.242;2023-05-08T13:32:04;99544.38;;;21.78;38.92
57574;BME280;68988;49.000;21.242;2023-05-08T13:34:30;99542.09;;;21.81;38.98
57574;BME280;68988;49.000;21.242;2023-05-08T13:36:55;99541.25;;;21.81;39.47
57574;BME280;68988;49.000;21.242;2023-05-08T13:39:20;99537.53;;;21.82;39.23
57574;BME280;68988;49.000;21.242;2023-05-08T13:41:46;99542.09;;;21.81;39.01
57574;BME280;68988;49.000;21.242;2023-05-08T13:44:11;99535.91;;;21.81;39.49
57574;BME280;68988;49.000;21.242;2023-05-08T13:46:36;99537.78;;;21.80;39.14
57574;BME280;68988;49.000;21.242;2023-05-08T13:49:02;99541.47;;;21.79;39.18
57574;BME280;68988;49.000;21.242;2023-05-08T13:51:27;99544.16;;;21.79;39.11
57574;BME280;68988;49.000;21.242;2023-05-08T13:53:52;99538.00;;;21.79;39.15
57574;BME280;68988;49.000;21.242;2023-05-08T13:56:18;99537.53;;;21.82;39.02